createdAt,value
2019-02-14T00:00:41.626Z,98500.37
2019-02-14T00:03:13.327Z,98494.02
2019-02-14T00:05:44.968Z,98488.56
2019-02-14T00:08:16.551Z,98494.06
2019-02-14T00:10:48.232Z,98497.08
2019-02-14T00:13:22.182Z,98497.52
2019-02-14T00:15:53.811Z,98490.27
2019-02-14T00:18:25.462Z,98496.62
2019-02-14T00:20:57.195Z,98492.41
2019-02-14T00:23:28.773Z,98494.53
2019-02-14T00:26:00.241Z,98486.51
2019-02-14T00:28:32.054Z,98486.48
2019-02-14T00:31:03.671Z,98492.41
2019-02-14T00:33:35.208Z,98485.58
2019-02-14T00:36:06.842Z,98490.33
2019-02-14T00:38:38.469Z,98482.26
2019-02-14T00:41:11.415Z,98485.20
2019-02-14T00:43:45.508Z,98480.97
2019-02-14T00:46:18.788Z,98482.27
2019-02-14T00:48:50.400Z,98476.75
2019-02-14T00:51:21.966Z,98467.39
2019-02-14T00:53:55.047Z,98476.31
2019-02-14T00:56:26.856Z,98475.09
2019-02-14T00:58:58.369Z,98467.03
2019-02-14T01:01:30.040Z,98466.97
2019-02-14T01:04:01.540Z,98463.95
2019-02-14T01:06:33.066Z,98461.42
2019-02-14T01:09:04.728Z,98455.91
2019-02-14T01:11:36.647Z,98452.09
2019-02-14T01:14:08.228Z,98454.66
2019-02-14T01:16:39.686Z,98453.36
2019-02-14T01:19:11.325Z,98455.50
2019-02-14T01:21:44.177Z,98453.89
2019-02-14T01:24:15.786Z,98449.28
2019-02-14T01:26:47.244Z,98451.42
2019-02-14T01:29:18.800Z,98432.38
2019-02-14T01:31:50.525Z,98442.16
2019-02-14T01:34:22.162Z,98439.58
2019-02-14T01:36:53.657Z,98442.53
2019-02-14T01:39:25.300Z,98436.27
2019-02-14T01:41:56.902Z,98431.66
2019-02-14T01:44:29.941Z,98429.50
2019-02-14T01:47:01.512Z,98425.69
2019-02-14T01:49:33.110Z,98429.06
2019-02-14T01:52:04.662Z,98429.94
2019-02-14T01:54:36.372Z,98431.23
2019-02-14T01:57:07.862Z,98426.16
2019-02-14T01:59:41.709Z,98425.27
2019-02-14T02:02:13.322Z,98428.27
2019-02-14T02:04:45.836Z,98414.75
2019-02-14T02:07:17.485Z,98417.71
2019-02-14T02:09:49.100Z,98412.62
2019-02-14T02:12:20.692Z,98408.46
2019-02-14T02:14:52.262Z,98414.77
2019-02-14T02:17:23.868Z,98415.63
2019-02-14T02:19:55.460Z,98412.68
2019-02-14T02:22:26.950Z,98411.45
2019-02-14T02:24:58.576Z,98404.69
2019-02-14T02:27:30.578Z,98405.17
2019-02-14T02:30:02.214Z,98399.24
2019-02-14T02:32:35.307Z,98400.05
2019-02-14T02:35:08.580Z,98408.98
2019-02-14T02:37:40.051Z,98403.47
2019-02-14T02:40:12.853Z,98399.27
2019-02-14T02:42:44.518Z,98396.73
2019-02-14T02:45:16.122Z,98395.44
2019-02-14T02:47:47.778Z,98400.97
2019-02-14T02:50:19.400Z,98395.08
2019-02-14T02:52:51.044Z,98387.90
2019-02-14T02:55:22.644Z,98390.86
2019-02-14T02:57:56.120Z,98397.20
2019-02-14T03:00:27.915Z,98393.02
2019-02-14T03:02:59.486Z,98386.64
2019-02-14T03:05:30.939Z,98383.28
2019-02-14T03:08:02.483Z,98380.33
2019-02-14T03:10:34.068Z,98378.61
2019-02-14T03:13:05.763Z,98377.35
2019-02-14T03:15:38.538Z,98377.77
2019-02-14T03:18:10.232Z,98371.44
2019-02-14T03:20:42.352Z,98378.23
2019-02-14T03:23:14.082Z,98373.17
2019-02-14T03:25:45.680Z,98379.08
2019-02-14T03:28:17.203Z,98379.52
2019-02-14T03:30:48.850Z,98368.98
2019-02-14T03:33:20.417Z,98363.91
2019-02-14T03:35:51.929Z,98373.25
2019-02-14T03:38:23.419Z,98366.47
2019-02-14T03:40:56.291Z,98360.57
2019-02-14T03:43:27.789Z,98358.06
2019-02-14T03:45:59.499Z,98358.08
2019-02-14T03:48:31.114Z,98350.05
2019-02-14T03:51:02.757Z,98354.30
2019-02-14T03:53:34.321Z,98357.67
2019-02-14T03:56:05.825Z,98352.59
2019-02-14T03:58:37.374Z,98359.38
2019-02-14T04:01:08.944Z,98353.02
2019-02-14T04:03:40.545Z,98354.73
2019-02-14T04:06:12.087Z,98353.97
2019-02-14T04:08:43.606Z,98348.02
2019-02-14T04:11:15.255Z,98345.91
2019-02-14T04:13:46.856Z,98342.55
2019-02-14T04:16:18.545Z,98338.34
2019-02-14T04:18:50.092Z,98337.55
2019-02-14T04:21:21.787Z,98338.02
2019-02-14T04:23:53.289Z,98337.55
2019-02-14T04:26:24.997Z,98330.00
2019-02-14T04:28:59.302Z,98324.47
2019-02-14T04:31:30.884Z,98327.44
2019-02-14T04:34:02.603Z,98326.15
2019-02-14T04:36:35.984Z,98325.81
2019-02-14T04:39:09.071Z,98323.35
2019-02-14T04:41:40.621Z,98324.20
2019-02-14T04:44:12.293Z,98314.53
2019-02-14T04:46:43.842Z,98317.47
2019-02-14T04:49:15.452Z,98320.44
2019-02-14T04:51:47.040Z,98308.16
2019-02-14T04:54:18.770Z,98320.86
2019-02-14T04:56:50.441Z,98318.34
2019-02-14T04:59:22.072Z,98319.13
2019-02-14T05:01:53.637Z,98326.27
2019-02-14T05:04:25.177Z,98323.30
2019-02-14T05:06:56.778Z,98326.27
2019-02-14T05:09:28.516Z,98335.09
2019-02-14T05:12:00.241Z,98336.33
2019-02-14T05:14:34.531Z,98339.30
2019-02-14T05:17:08.184Z,98342.68
2019-02-14T05:19:39.694Z,98342.25
2019-02-14T05:22:11.344Z,98346.48
2019-02-14T05:24:45.244Z,98343.48
2019-02-14T05:27:16.927Z,98343.47
2019-02-14T05:29:48.454Z,98340.91
2019-02-14T05:32:21.110Z,98344.72
2019-02-14T05:34:52.600Z,98348.88
2019-02-14T05:37:24.128Z,98344.29
2019-02-14T05:39:55.767Z,98340.48
2019-02-14T05:42:27.334Z,98335.86
2019-02-14T05:44:58.955Z,98338.41
2019-02-14T05:47:30.666Z,98336.66
2019-02-14T05:50:03.416Z,98340.41
2019-02-14T05:52:36.347Z,98341.23
2019-02-14T05:55:11.767Z,98340.33
2019-02-14T05:57:43.426Z,98344.51
2019-02-14T06:00:16.188Z,98344.02
2019-02-14T06:02:47.876Z,98340.16
2019-02-14T06:05:19.487Z,98347.69
2019-02-14T06:07:51.154Z,98353.11
2019-02-14T06:10:22.728Z,98346.20
2019-02-14T06:12:54.343Z,98344.94
2019-02-14T06:15:25.921Z,98355.39
2019-02-14T06:17:57.577Z,98345.69
2019-02-14T06:20:29.142Z,98344.34
2019-02-14T06:23:00.800Z,98339.59
2019-02-14T06:25:32.332Z,98336.14
2019-02-14T06:28:03.904Z,98337.33
2019-02-14T06:30:36.912Z,98340.15
2019-02-14T06:33:08.520Z,98334.56
2019-02-14T06:35:40.103Z,98339.47
2019-02-14T06:38:11.639Z,98327.80
2019-02-14T06:40:43.181Z,98340.17
2019-02-14T06:43:14.750Z,98341.53
2019-02-14T06:45:46.285Z,98338.34
2019-02-14T06:48:17.830Z,98344.44
2019-02-14T06:50:49.460Z,98347.73
2019-02-14T06:53:21.070Z,98350.00
2019-02-14T06:55:52.620Z,98346.91
2019-02-14T06:58:24.167Z,98346.38
2019-02-14T07:00:58.285Z,98346.13
2019-02-14T07:03:29.803Z,98344.34
2019-02-14T07:06:01.376Z,98339.18
2019-02-14T07:08:32.945Z,98338.25
2019-02-14T07:11:05.855Z,98339.14
2019-02-14T07:13:37.344Z,98337.44
2019-02-14T07:16:09.698Z,98341.30
2019-02-14T07:18:41.451Z,98341.27
2019-02-14T07:21:12.958Z,98340.17
2019-02-14T07:23:44.543Z,98335.55
2019-02-14T07:26:16.141Z,98331.03
2019-02-14T07:28:49.905Z,98328.05
2019-02-14T07:31:21.426Z,98330.53
2019-02-14T07:33:53.096Z,98328.09
2019-02-14T07:36:24.684Z,98338.36
2019-02-14T07:38:56.267Z,98338.70
2019-02-14T07:41:27.793Z,98329.26
2019-02-14T07:44:00.700Z,98329.72
2019-02-14T07:46:32.343Z,98330.30
2019-02-14T07:49:03.914Z,98330.36
2019-02-14T07:51:35.442Z,98317.59
2019-02-14T07:54:08.584Z,98328.91
2019-02-14T07:56:40.138Z,98322.73
2019-02-14T07:59:11.713Z,98320.06
2019-02-14T08:01:43.165Z,98325.90
2019-02-14T08:04:17.277Z,98320.66
2019-02-14T08:06:47.949Z,98326.52
2019-02-14T08:09:19.647Z,98326.31
2019-02-14T08:11:51.194Z,98328.02
2019-02-14T08:14:25.559Z,98322.11
2019-02-14T08:16:57.085Z,98321.14
2019-02-14T08:19:28.736Z,98320.45
2019-02-14T08:22:00.437Z,98323.97
2019-02-14T08:24:32.194Z,98324.31
2019-02-14T08:27:03.684Z,98324.27
2019-02-14T08:29:37.496Z,98319.87
2019-02-14T08:32:09.254Z,98322.25
2019-02-14T08:34:42.486Z,98319.58
2019-02-14T08:37:13.998Z,98315.41
2019-02-14T08:39:45.728Z,98308.06
2019-02-14T08:42:17.267Z,98310.53
2019-02-14T08:44:48.917Z,98300.50
2019-02-14T08:47:20.565Z,98299.47
2019-02-14T08:49:52.183Z,98299.02
2019-02-14T08:52:23.764Z,98301.71
2019-02-14T08:54:55.470Z,98305.05
2019-02-14T08:57:27.036Z,98301.97
2019-02-14T08:59:58.714Z,98304.33
2019-02-14T09:02:30.283Z,98311.73
2019-02-14T09:05:01.948Z,98309.06
2019-02-14T09:07:33.397Z,98308.17
2019-02-14T09:10:05.161Z,98309.23
2019-02-14T09:12:36.727Z,98302.38
2019-02-14T09:15:08.991Z,98306.08
2019-02-14T09:17:40.714Z,98304.31
2019-02-14T09:20:14.156Z,98302.30
2019-02-14T09:22:45.664Z,98306.52
2019-02-14T09:25:17.298Z,98308.59
2019-02-14T09:27:49.967Z,98309.44
2019-02-14T09:30:21.666Z,98302.37
2019-02-14T09:32:53.434Z,98297.50
2019-02-14T09:35:25.007Z,98291.53
2019-02-14T09:38:03.324Z,98291.79
2019-02-14T09:40:31.530Z,98286.22
2019-02-14T09:43:03.146Z,98283.36
2019-02-14T09:45:34.836Z,98277.39
2019-02-14T09:48:06.509Z,98271.30
2019-02-14T09:50:38.081Z,98269.05
2019-02-14T09:53:09.697Z,98258.89
2019-02-14T09:55:41.368Z,98250.53
2019-02-14T09:58:15.919Z,98249.02
2019-02-14T10:00:47.609Z,98245.59
2019-02-14T10:03:19.195Z,98245.41
2019-02-14T10:05:50.857Z,98242.13
2019-02-14T10:08:22.365Z,98244.34
2019-02-14T10:10:53.970Z,98241.96
2019-02-14T10:13:25.545Z,98245.78
2019-02-14T10:15:57.172Z,98238.23
2019-02-14T10:18:31.841Z,98239.46
2019-02-14T10:21:03.549Z,98243.36
2019-02-14T10:23:35.282Z,98241.36
2019-02-14T10:26:06.923Z,98227.07
2019-02-14T10:28:38.497Z,98234.13
2019-02-14T10:31:10.183Z,98231.48
2019-02-14T10:33:41.710Z,98231.07
2019-02-14T10:36:13.386Z,98228.27
2019-02-14T10:38:45.091Z,98226.20
2019-02-14T10:41:16.617Z,98217.08
2019-02-14T10:43:49.071Z,98217.14
2019-02-14T10:46:20.977Z,98213.52
2019-02-14T10:48:52.598Z,98212.77
2019-02-14T10:51:24.164Z,98211.09
2019-02-14T10:53:55.782Z,98205.45
2019-02-14T10:56:28.620Z,98198.77
2019-02-14T10:59:00.151Z,98193.38
2019-02-14T11:01:33.892Z,98193.43
2019-02-14T11:04:05.721Z,98187.90
2019-02-14T11:06:38.736Z,98191.02
2019-02-14T11:09:10.417Z,98192.20
2019-02-14T11:11:41.946Z,98201.67
2019-02-14T11:14:13.535Z,98194.13
2019-02-14T11:16:45.066Z,98202.60
2019-02-14T11:19:16.713Z,98195.96
2019-02-14T11:21:48.154Z,98192.18
2019-02-14T11:24:19.917Z,98186.84
2019-02-14T11:26:52.747Z,98191.62
2019-02-14T11:29:24.396Z,98185.78
2019-02-14T11:31:55.956Z,98188.69
2019-02-14T11:34:27.662Z,98185.34
2019-02-14T11:36:59.279Z,98179.09
2019-02-14T11:39:30.859Z,98180.06
2019-02-14T11:42:02.377Z,98175.82
2019-02-14T11:44:39.864Z,98171.69
2019-02-14T11:47:07.912Z,98169.99
2019-02-14T11:49:39.859Z,98171.28
2019-02-14T11:52:11.507Z,98173.27
2019-02-14T11:54:43.167Z,98176.53
2019-02-14T11:57:14.927Z,98175.27
2019-02-14T11:59:46.491Z,98172.52
2019-02-14T12:02:18.040Z,98178.52
2019-02-14T12:04:49.773Z,98180.20
2019-02-14T12:07:21.290Z,98189.16
2019-02-14T12:09:55.527Z,98189.30
2019-02-14T12:12:27.945Z,98180.48
2019-02-14T12:14:59.900Z,98177.94
2019-02-14T12:17:31.600Z,98175.27
2019-02-14T12:20:04.400Z,98168.28
2019-02-14T12:22:36.048Z,98172.66
2019-02-14T12:25:09.893Z,98166.95
2019-02-14T12:27:41.420Z,98169.20
2019-02-14T12:30:14.703Z,98158.43
2019-02-14T12:32:46.360Z,98159.84
2019-02-14T12:35:17.953Z,98157.89
2019-02-14T12:37:49.515Z,98156.25
2019-02-14T12:40:22.456Z,98158.64
2019-02-14T12:42:54.079Z,98147.28
2019-02-14T12:45:26.965Z,98151.59
2019-02-14T12:47:58.658Z,98156.00
2019-02-14T12:50:30.397Z,98154.91
2019-02-14T12:53:02.032Z,98159.72
2019-02-14T12:55:33.772Z,98150.80
2019-02-14T12:58:05.251Z,98155.09
2019-02-14T13:00:36.955Z,98149.09
2019-02-14T13:03:08.518Z,98154.38
2019-02-14T13:05:40.040Z,98146.97
2019-02-14T13:08:11.637Z,98144.91
2019-02-14T13:10:45.816Z,98143.32
2019-02-14T13:13:17.301Z,98143.98
2019-02-14T13:15:48.888Z,98152.92
2019-02-14T13:18:20.447Z,98150.20
2019-02-14T13:20:52.077Z,98147.81
2019-02-14T13:23:23.667Z,98154.08
2019-02-14T13:25:55.277Z,98146.89
2019-02-14T13:28:26.864Z,98156.39
2019-02-14T13:30:58.555Z,98158.52
2019-02-14T13:33:30.225Z,98154.17
2019-02-14T13:36:02.005Z,98150.78
2019-02-14T13:38:33.753Z,98149.07
2019-02-14T13:41:05.308Z,98143.41
2019-02-14T13:43:36.853Z,98144.06
2019-02-14T13:46:08.506Z,98138.27
2019-02-14T13:48:40.063Z,98128.02
2019-02-14T13:51:13.017Z,98133.12
2019-02-14T13:53:44.547Z,98127.75
2019-02-14T13:56:16.233Z,98124.61
2019-02-14T13:58:47.916Z,98121.31
2019-02-14T14:01:21.095Z,98117.00
2019-02-14T14:03:52.798Z,98120.91
2019-02-14T14:06:25.469Z,98115.41
2019-02-14T14:08:59.068Z,98120.54
2019-02-14T14:11:30.637Z,98119.11
2019-02-14T14:14:02.261Z,98118.43
2019-02-14T14:16:33.966Z,98114.28
2019-02-14T14:19:06.562Z,98117.22
2019-02-14T14:21:40.680Z,98112.27
2019-02-14T14:24:12.270Z,98118.17
2019-02-14T14:26:43.955Z,98110.20
2019-02-14T14:29:15.534Z,98108.06
2019-02-14T14:31:47.135Z,98108.87
2019-02-14T14:34:18.642Z,98120.30
2019-02-14T14:36:50.160Z,98110.62
2019-02-14T14:39:21.755Z,98113.64
2019-02-14T14:41:53.262Z,98111.41
2019-02-14T14:44:30.857Z,98115.58
2019-02-14T14:47:25.785Z,98108.45
2019-02-14T14:49:57.363Z,98111.00
2019-02-14T14:52:32.024Z,98108.27
2019-02-14T14:55:03.813Z,98107.47
2019-02-14T14:57:37.131Z,98106.30
2019-02-14T15:00:08.833Z,98102.86
2019-02-14T15:02:40.433Z,98111.91
2019-02-14T15:05:14.745Z,98107.15
2019-02-14T15:07:46.268Z,98112.72
2019-02-14T15:10:17.996Z,98103.41
2019-02-14T15:12:49.564Z,98102.43
2019-02-14T15:15:21.062Z,98099.12
2019-02-14T15:17:52.691Z,98095.02
2019-02-14T15:20:24.212Z,98098.17
2019-02-14T15:22:58.444Z,98086.71
2019-02-14T15:25:30.059Z,98092.99
2019-02-14T15:28:01.728Z,98086.91
2019-02-14T15:30:33.172Z,98088.23
2019-02-14T15:33:04.756Z,98087.56
2019-02-14T15:35:36.277Z,98086.02
2019-02-14T15:38:09.743Z,98086.34
2019-02-14T15:40:41.222Z,98083.84
2019-02-14T15:43:12.794Z,98086.91
2019-02-14T15:45:44.499Z,98082.80
2019-02-14T15:48:16.054Z,98086.33
2019-02-14T15:50:47.716Z,98093.17
2019-02-14T15:53:21.391Z,98087.73
2019-02-14T15:55:52.836Z,98093.59
2019-02-14T15:58:24.396Z,98091.85
2019-02-14T16:00:56.013Z,98093.97
2019-02-14T16:03:27.625Z,98089.59
2019-02-14T16:05:59.171Z,98087.05
2019-02-14T16:08:30.704Z,98083.13
2019-02-14T16:11:02.310Z,98089.03
2019-02-14T16:13:35.095Z,98093.31
2019-02-14T16:16:06.701Z,98093.80
2019-02-14T16:18:38.387Z,98099.36
2019-02-14T16:21:10.155Z,98092.38
2019-02-14T16:23:41.619Z,98093.23
2019-02-14T16:26:14.828Z,98089.08
2019-02-14T16:28:46.559Z,98092.33
2019-02-14T16:31:18.065Z,98090.20
2019-02-14T16:33:49.599Z,98081.67
2019-02-14T16:36:22.696Z,98080.58
2019-02-14T16:38:56.421Z,98091.34
2019-02-14T16:41:28.841Z,98089.59
2019-02-14T16:44:00.471Z,98092.42
2019-02-14T16:46:32.105Z,98092.75
2019-02-14T16:49:03.715Z,98087.71
2019-02-14T16:51:35.423Z,98085.59
2019-02-14T16:54:08.260Z,98080.97
2019-02-14T16:56:39.842Z,98081.87
2019-02-14T16:59:11.527Z,98086.48
2019-02-14T17:01:43.167Z,98085.49
2019-02-14T17:04:14.815Z,98088.55
2019-02-14T17:06:46.407Z,98088.98
2019-02-14T17:09:17.965Z,98083.38
2019-02-14T17:11:49.564Z,98085.45
2019-02-14T17:14:21.295Z,98082.05
2019-02-14T17:16:52.953Z,98084.83
2019-02-14T17:19:24.553Z,98083.95
2019-02-14T17:21:56.218Z,98075.30
2019-02-14T17:24:27.838Z,98075.53
2019-02-14T17:26:59.417Z,98073.08
2019-02-14T17:29:31.645Z,98081.72
2019-02-14T17:32:03.204Z,98074.91
2019-02-14T17:34:34.751Z,98073.50
2019-02-14T17:37:06.213Z,98067.52
2019-02-14T17:39:40.393Z,98064.59
2019-02-14T17:42:11.983Z,98057.78
2019-02-14T17:44:43.681Z,98052.31
2019-02-14T17:47:15.248Z,98055.14
2019-02-14T17:49:48.109Z,98053.44
2019-02-14T17:52:19.725Z,98048.25
2019-02-14T17:54:51.347Z,98043.56
2019-02-14T17:57:22.875Z,98046.92
2019-02-14T17:59:54.502Z,98043.63
2019-02-14T18:02:26.079Z,98039.94
2019-02-14T18:04:59.893Z,98039.33
2019-02-14T18:07:31.624Z,98038.00
2019-02-14T18:10:04.731Z,98028.92
2019-02-14T18:12:36.294Z,98026.27
2019-02-14T18:15:10.045Z,98016.91
2019-02-14T18:17:41.659Z,98015.97
2019-02-14T18:20:13.406Z,98008.42
2019-02-14T18:22:45.041Z,98003.31
2019-02-14T18:25:16.949Z,98008.62
2019-02-14T18:27:48.587Z,98011.55
2019-02-14T18:30:20.106Z,98014.52
2019-02-14T18:32:51.694Z,98010.98
2019-02-14T18:35:23.160Z,98001.56
2019-02-14T18:37:54.739Z,98008.21
2019-02-14T18:40:26.262Z,97999.25
2019-02-14T18:42:57.929Z,98005.63
2019-02-14T18:45:29.553Z,98009.91
2019-02-14T18:48:01.279Z,98001.78
2019-02-14T18:50:33.118Z,98006.88
2019-02-14T18:53:04.747Z,98014.59
2019-02-14T18:55:36.407Z,98019.77
2019-02-14T18:58:08.123Z,98012.13
2019-02-14T19:00:39.891Z,98024.35
2019-02-14T19:03:11.561Z,98040.12
2019-02-14T19:05:43.150Z,98042.63
2019-02-14T19:08:14.729Z,98040.81
2019-02-14T19:10:46.519Z,98047.67
2019-02-14T19:13:18.977Z,98048.84
2019-02-14T19:15:52.000Z,98044.22
2019-02-14T19:18:23.667Z,98048.03
2019-02-14T19:20:55.319Z,98045.00
2019-02-14T19:23:28.532Z,98040.34
2019-02-14T19:26:00.124Z,98041.72
2019-02-14T19:28:32.110Z,98033.81
2019-02-14T19:31:03.828Z,98037.69
2019-02-14T19:33:35.614Z,98037.78
2019-02-14T19:36:07.217Z,98034.76
2019-02-14T19:38:38.811Z,98033.01
2019-02-14T19:41:10.610Z,98035.08
2019-02-14T19:43:42.317Z,98037.22
2019-02-14T19:46:13.960Z,98036.68
2019-02-14T19:48:45.609Z,98040.18
2019-02-14T19:51:17.279Z,98031.36
2019-02-14T19:53:50.158Z,98037.27
2019-02-14T19:56:21.998Z,98036.73
2019-02-14T19:58:53.845Z,98032.85
2019-02-14T20:01:25.627Z,98028.59
2019-02-14T20:03:59.061Z,98031.30
2019-02-14T20:06:30.840Z,98021.92
2019-02-14T20:09:02.617Z,98021.97
2019-02-14T20:11:37.076Z,98019.63
2019-02-14T20:14:11.562Z,98017.45
2019-02-14T20:16:43.344Z,98016.12
2019-02-14T20:19:15.045Z,98014.11
2019-02-14T20:21:48.115Z,98021.13
2019-02-14T20:24:19.864Z,98014.84
2019-02-14T20:26:51.404Z,98013.31
2019-02-14T20:29:23.103Z,98008.16
2019-02-14T20:31:54.829Z,98016.48
2019-02-14T20:34:26.493Z,98016.39
2019-02-14T20:36:58.170Z,98016.50
2019-02-14T20:39:32.071Z,98020.22
2019-02-14T20:42:03.708Z,98018.25
2019-02-14T20:44:35.668Z,98018.25
2019-02-14T20:47:08.992Z,98015.80
2019-02-14T20:49:41.082Z,98009.31
2019-02-14T20:52:13.384Z,98005.77
2019-02-14T20:54:49.816Z,97995.31
2019-02-14T20:57:21.633Z,98000.46
2019-02-14T20:59:53.262Z,97995.04
2019-02-14T21:02:24.819Z,97991.74
2019-02-14T21:04:56.489Z,97991.22
2019-02-14T21:07:28.145Z,97982.34
2019-02-14T21:09:59.812Z,97980.50
2019-02-14T21:12:31.455Z,97975.88
2019-02-14T21:15:02.907Z,97974.34
2019-02-14T21:17:34.674Z,97969.34
2019-02-14T21:20:06.703Z,97974.48
2019-02-14T21:22:38.295Z,97979.22
2019-02-14T21:25:10.288Z,97978.27
2019-02-14T21:27:42.182Z,97980.34
2019-02-14T21:30:15.605Z,97981.09
2019-02-14T21:32:47.390Z,97989.04
2019-02-14T21:35:19.002Z,97992.66
2019-02-14T21:37:50.829Z,97997.76
2019-02-14T21:40:22.431Z,98004.17
2019-02-14T21:42:54.212Z,97999.45
2019-02-14T21:45:25.883Z,98004.06
2019-02-14T21:47:57.587Z,98004.02
2019-02-14T21:50:29.166Z,98005.28
2019-02-14T21:53:00.785Z,98002.75
2019-02-14T21:55:34.047Z,98009.12
2019-02-14T21:58:06.250Z,98013.63
2019-02-14T22:00:38.252Z,98013.42
2019-02-14T22:03:10.023Z,98006.08
2019-02-14T22:05:41.816Z,98021.75
2019-02-14T22:08:13.672Z,98014.43
2019-02-14T22:10:45.476Z,98011.87
2019-02-14T22:13:17.323Z,98015.23
2019-02-14T22:15:48.997Z,98018.83
2019-02-14T22:18:20.543Z,98012.47
2019-02-14T22:20:52.278Z,98015.12
2019-02-14T22:23:25.841Z,98015.86
2019-02-14T22:25:57.542Z,98016.27
2019-02-14T22:28:29.188Z,98024.39
2019-02-14T22:31:00.991Z,98016.98
2019-02-14T22:33:34.252Z,98021.38
2019-02-14T22:36:05.788Z,98023.44
2019-02-14T22:38:37.322Z,98028.44
2019-02-14T22:41:11.401Z,98029.50
2019-02-14T22:43:43.051Z,98021.49
2019-02-14T22:46:14.672Z,98027.33
2019-02-14T22:48:46.315Z,98029.55
2019-02-14T22:51:17.697Z,98025.67
2019-02-14T22:53:49.312Z,98031.05
2019-02-14T22:56:20.972Z,98025.20
2019-02-14T22:58:52.640Z,98030.77
2019-02-14T23:01:27.284Z,98028.70
2019-02-14T23:03:58.779Z,98033.38
2019-02-14T23:06:31.121Z,98026.05
2019-02-14T23:09:04.921Z,98028.13
2019-02-14T23:11:36.421Z,98026.01
2019-02-14T23:14:07.994Z,98022.32
2019-02-14T23:16:39.712Z,98021.86
2019-02-14T23:19:11.456Z,98019.25
2019-02-14T23:21:43.082Z,98022.81
2019-02-14T23:24:14.654Z,98022.34
2019-02-14T23:26:47.346Z,98021.49
2019-02-14T23:29:18.983Z,98015.22
2019-02-14T23:31:50.591Z,98021.59
2019-02-14T23:34:26.155Z,98017.55
2019-02-14T23:36:57.728Z,98018.45
2019-02-14T23:39:29.281Z,98022.06
2019-02-14T23:42:00.787Z,98024.23
2019-02-14T23:44:32.435Z,98017.44
2019-02-14T23:47:03.913Z,98014.24
2019-02-14T23:49:35.437Z,98014.24
2019-02-14T23:52:07.113Z,98017.17
2019-02-14T23:54:38.622Z,98013.44
2019-02-14T23:57:10.132Z,98012.92
2019-02-14T23:59:41.728Z,98020.09
